BCS406 LIMC-EDDK
Flight info
| Callsign | BCS406 |
|---|---|
| Flight time | 1h 6m |
| Altitude | 38000 |
| Route | AOSTA DCT ORSUD DCT MOLUS DCT GILIR DCT PENDU DCT IXILU DCT GIVOR DCT SORAL DCT IBERA N853 ARCKY T853 IBESA T860 ERUKI ERUKI1B |
| Aircraft | B738/M-SDE2E3FGHIRWXY/LB1 |
Departure
| Time | 2026-05-06 18:30 |
|---|---|
| Airport | Milan Malpensa International Airport (LIMC) |
Arrival
| Time | 2026-05-06 19:36 |
|---|---|
| Airport | Cologne Bonn Airport (EDDK) |
| Time | Latitude | Longitude | Altitude | Speed | Heading |
|---|---|---|---|---|---|
| 2026-05-06 17:43 | 45.60942 | 8.72056 | 693 ft | 0 kts | 261° |
| 2026-05-06 18:18 | 45.60943 | 8.72058 | 675 ft | 2 kts | 261° |
| 2026-05-06 18:18 | 45.60945 | 8.72082 | 696 ft | 2 kts | 261° |
| 2026-05-06 18:18 | 45.60948 | 8.72105 | 698 ft | 2 kts | 260° |
| 2026-05-06 18:19 | 45.60951 | 8.72128 | 700 ft | 2 kts | 259° |
| 2026-05-06 18:19 | 45.60956 | 8.72149 | 693 ft | 2 kts | 210° |
| 2026-05-06 18:19 | 45.60971 | 8.72158 | 694 ft | 2 kts | 201° |
| 2026-05-06 18:19 | 45.60987 | 8.72164 | 694 ft | 2 kts | 175° |
| 2026-05-06 18:20 | 45.61003 | 8.72161 | 700 ft | 2 kts | 167° |
| 2026-05-06 18:20 | 45.61014 | 8.72157 | 698 ft | 0 kts | 169° |
| 2026-05-06 18:22 | 45.61005 | 8.72160 | 700 ft | 2 kts | 169° |
| 2026-05-06 18:22 | 45.60972 | 8.72169 | 693 ft | 8 kts | 168° |
| 2026-05-06 18:22 | 45.60886 | 8.72194 | 694 ft | 16 kts | 168° |
| 2026-05-06 18:22 | 45.60772 | 8.72224 | 699 ft | 16 kts | 168° |
| 2026-05-06 18:23 | 45.60665 | 8.72254 | 702 ft | 15 kts | 164° |
| 2026-05-06 18:23 | 45.60639 | 8.72380 | 700 ft | 15 kts | 81° |
| 2026-05-06 18:23 | 45.60636 | 8.72522 | 702 ft | 14 kts | 97° |
| 2026-05-06 18:23 | 45.60626 | 8.72659 | 700 ft | 13 kts | 96° |
| 2026-05-06 18:24 | 45.60616 | 8.72801 | 702 ft | 16 kts | 96° |
| 2026-05-06 18:24 | 45.60603 | 8.72966 | 701 ft | 18 kts | 96° |
| 2026-05-06 18:24 | 45.60591 | 8.73152 | 698 ft | 19 kts | 92° |
| 2026-05-06 18:24 | 45.60664 | 8.73291 | 698 ft | 19 kts | 20° |
| 2026-05-06 18:25 | 45.60781 | 8.73358 | 697 ft | 18 kts | 24° |
| 2026-05-06 18:25 | 45.60896 | 8.73409 | 702 ft | 17 kts | 1° |
| 2026-05-06 18:25 | 45.61009 | 8.73380 | 698 ft | 16 kts | 350° |
| 2026-05-06 18:25 | 45.61116 | 8.73348 | 699 ft | 16 kts | 349° |
| 2026-05-06 18:26 | 45.61219 | 8.73322 | 700 ft | 15 kts | 349° |
| 2026-05-06 18:26 | 45.61319 | 8.73294 | 704 ft | 14 kts | 348° |
| 2026-05-06 18:26 | 45.61415 | 8.73266 | 704 ft | 14 kts | 348° |
| 2026-05-06 18:26 | 45.61518 | 8.73237 | 707 ft | 15 kts | 348° |
| 2026-05-06 18:27 | 45.61613 | 8.73263 | 706 ft | 15 kts | 62° |
| 2026-05-06 18:27 | 45.61633 | 8.73418 | 701 ft | 17 kts | 98° |
| 2026-05-06 18:27 | 45.61589 | 8.73580 | 698 ft | 18 kts | 98° |
| 2026-05-06 18:27 | 45.61639 | 8.73729 | 703 ft | 15 kts | 7° |
| 2026-05-06 18:28 | 45.61668 | 8.73723 | 698 ft | 0 kts | 347° |
| 2026-05-06 18:29 | 45.61669 | 8.73722 | 698 ft | 1 kts | 347° |
| 2026-05-06 18:29 | 45.61783 | 8.73692 | 707 ft | 47 kts | 349° |
| 2026-05-06 18:29 | 45.62339 | 8.73539 | 723 ft | 113 kts | 349° |
| 2026-05-06 18:29 | 45.63296 | 8.73288 | 835 ft | 157 kts | 351° |
| 2026-05-06 18:30 | 45.64376 | 8.73030 | 1537 ft | 158 kts | 351° |
| 2026-05-06 18:30 | 45.65500 | 8.72740 | 2153 ft | 169 kts | 352° |
| 2026-05-06 18:30 | 45.66672 | 8.72631 | 2693 ft | 183 kts | 0° |
| 2026-05-06 18:30 | 45.68048 | 8.72620 | 2964 ft | 211 kts | 0° |
| 2026-05-06 18:31 | 45.69593 | 8.72611 | 3226 ft | 231 kts | 360° |
| 2026-05-06 18:31 | 45.71224 | 8.72588 | 3763 ft | 238 kts | 356° |
| 2026-05-06 18:31 | 45.72773 | 8.71814 | 4474 ft | 238 kts | 317° |
| 2026-05-06 18:31 | 45.73672 | 8.69888 | 5209 ft | 236 kts | 284° |
| 2026-05-06 18:32 | 45.73742 | 8.67575 | 5952 ft | 234 kts | 256° |
| 2026-05-06 18:32 | 45.73173 | 8.65397 | 6669 ft | 234 kts | 243° |
| 2026-05-06 18:32 | 45.72479 | 8.63266 | 7330 ft | 238 kts | 245° |
| 2026-05-06 18:32 | 45.71797 | 8.61117 | 8012 ft | 241 kts | 245° |
| 2026-05-06 18:33 | 45.71020 | 8.58948 | 8539 ft | 254 kts | 239° |
| 2026-05-06 18:33 | 45.70023 | 8.56722 | 8836 ft | 274 kts | 237° |
| 2026-05-06 18:33 | 45.68974 | 8.54407 | 9511 ft | 279 kts | 237° |
| 2026-05-06 18:33 | 45.67924 | 8.52065 | 10208 ft | 283 kts | 237° |
| 2026-05-06 18:34 | 45.66817 | 8.49597 | 10390 ft | 306 kts | 237° |
| 2026-05-06 18:34 | 45.65629 | 8.46942 | 10571 ft | 328 kts | 237° |
| 2026-05-06 18:34 | 45.64376 | 8.44133 | 10864 ft | 343 kts | 237° |
| 2026-05-06 18:34 | 45.63095 | 8.41262 | 11431 ft | 348 kts | 237° |
| 2026-05-06 18:35 | 45.61691 | 8.38433 | 12157 ft | 350 kts | 231° |
| 2026-05-06 18:35 | 45.60105 | 8.35784 | 12921 ft | 351 kts | 229° |
| 2026-05-06 18:35 | 45.58742 | 8.32889 | 13601 ft | 356 kts | 248° |
| 2026-05-06 18:35 | 45.58349 | 8.29392 | 14280 ft | 363 kts | 270° |
| 2026-05-06 18:36 | 45.58697 | 8.25827 | 14952 ft | 369 kts | 282° |
| 2026-05-06 18:36 | 45.59483 | 8.22302 | 15584 ft | 375 kts | 286° |
| 2026-05-06 18:36 | 45.60353 | 8.18769 | 16270 ft | 378 kts | 287° |
| 2026-05-06 18:36 | 45.61228 | 8.15219 | 16948 ft | 381 kts | 286° |
| 2026-05-06 18:37 | 45.62085 | 8.11671 | 17583 ft | 384 kts | 285° |
| 2026-05-06 18:37 | 45.62944 | 8.08033 | 18172 ft | 389 kts | 285° |
| 2026-05-06 18:37 | 45.63800 | 8.04355 | 18746 ft | 391 kts | 285° |
| 2026-05-06 18:37 | 45.64652 | 8.00652 | 19335 ft | 393 kts | 284° |
| 2026-05-06 18:38 | 45.65506 | 7.96935 | 19896 ft | 395 kts | 284° |
| 2026-05-06 18:38 | 45.66366 | 7.93195 | 20455 ft | 397 kts | 284° |
| 2026-05-06 18:38 | 45.67179 | 7.89666 | 20962 ft | 399 kts | 284° |
| 2026-05-06 18:38 | 45.68044 | 7.85873 | 21443 ft | 403 kts | 284° |
| 2026-05-06 18:39 | 45.68902 | 7.82106 | 22024 ft | 404 kts | 284° |
| 2026-05-06 18:39 | 45.69773 | 7.78277 | 22605 ft | 405 kts | 284° |
| 2026-05-06 18:39 | 45.70644 | 7.74429 | 23081 ft | 409 kts | 284° |
| 2026-05-06 18:40 | 45.72421 | 7.66581 | 23798 ft | 420 kts | 284° |
| 2026-05-06 18:40 | 45.73320 | 7.62608 | 24165 ft | 420 kts | 284° |
| 2026-05-06 18:40 | 45.74215 | 7.58637 | 24595 ft | 420 kts | 284° |
| 2026-05-06 18:40 | 45.75116 | 7.54638 | 24964 ft | 423 kts | 284° |
| 2026-05-06 18:41 | 45.76019 | 7.50615 | 25338 ft | 426 kts | 283° |
| 2026-05-06 18:41 | 45.76917 | 7.46616 | 25733 ft | 428 kts | 283° |
| 2026-05-06 18:41 | 45.77826 | 7.42557 | 26123 ft | 430 kts | 283° |
| 2026-05-06 18:41 | 45.78751 | 7.38462 | 26503 ft | 434 kts | 285° |
| 2026-05-06 18:42 | 45.80163 | 7.34590 | 26822 ft | 450 kts | 303° |
| 2026-05-06 18:42 | 45.82469 | 7.31472 | 27194 ft | 462 kts | 318° |
| 2026-05-06 18:42 | 45.85114 | 7.28824 | 27508 ft | 467 kts | 320° |
| 2026-05-06 18:42 | 45.87817 | 7.26190 | 27704 ft | 471 kts | 320° |
| 2026-05-06 18:43 | 45.90494 | 7.23564 | 28080 ft | 473 kts | 320° |
| 2026-05-06 18:43 | 45.93191 | 7.20865 | 28412 ft | 474 kts | 319° |
| 2026-05-06 18:43 | 45.95897 | 7.18117 | 28646 ft | 478 kts | 319° |
| 2026-05-06 18:43 | 45.98613 | 7.15334 | 28877 ft | 481 kts | 319° |
| 2026-05-06 18:44 | 46.01334 | 7.12540 | 29423 ft | 477 kts | 320° |
| 2026-05-06 18:44 | 46.03997 | 7.09808 | 30250 ft | 467 kts | 320° |
| 2026-05-06 18:44 | 46.06641 | 7.07089 | 30542 ft | 468 kts | 320° |
| 2026-05-06 18:45 | 46.11995 | 7.01566 | 30855 ft | 475 kts | 320° |
| 2026-05-06 18:45 | 46.14677 | 6.98799 | 31214 ft | 473 kts | 320° |
| 2026-05-06 18:45 | 46.17315 | 6.96075 | 31544 ft | 472 kts | 320° |
| 2026-05-06 18:45 | 46.19989 | 6.93311 | 31692 ft | 475 kts | 320° |
| 2026-05-06 18:46 | 46.22678 | 6.90525 | 31981 ft | 475 kts | 320° |
| 2026-05-06 18:46 | 46.25353 | 6.87751 | 32348 ft | 473 kts | 320° |
| 2026-05-06 18:46 | 46.28021 | 6.84983 | 32744 ft | 471 kts | 320° |
| 2026-05-06 18:46 | 46.30683 | 6.82216 | 33079 ft | 471 kts | 319° |
| 2026-05-06 18:47 | 46.33341 | 6.79450 | 33430 ft | 470 kts | 320° |
| 2026-05-06 18:47 | 46.35987 | 6.76692 | 33820 ft | 467 kts | 320° |
| 2026-05-06 18:47 | 46.38621 | 6.73945 | 34020 ft | 468 kts | 320° |
| 2026-05-06 18:47 | 46.41237 | 6.71212 | 34134 ft | 470 kts | 320° |
| 2026-05-06 18:48 | 46.43894 | 6.68448 | 34356 ft | 470 kts | 322° |
| 2026-05-06 18:48 | 46.46696 | 6.65994 | 34638 ft | 473 kts | 329° |
| 2026-05-06 18:48 | 46.49657 | 6.63917 | 34916 ft | 472 kts | 331° |
| 2026-05-06 18:48 | 46.52640 | 6.61908 | 35146 ft | 472 kts | 332° |
| 2026-05-06 18:49 | 46.55616 | 6.59904 | 35350 ft | 473 kts | 331° |
| 2026-05-06 18:49 | 46.58596 | 6.57870 | 35594 ft | 472 kts | 331° |
| 2026-05-06 18:49 | 46.61515 | 6.55846 | 35839 ft | 471 kts | 330° |
| 2026-05-06 18:49 | 46.64464 | 6.53776 | 36075 ft | 470 kts | 330° |
| 2026-05-06 18:50 | 46.67401 | 6.51699 | 36284 ft | 470 kts | 330° |
| 2026-05-06 18:50 | 46.70340 | 6.49613 | 36520 ft | 470 kts | 330° |
| 2026-05-06 18:50 | 46.73265 | 6.47533 | 36782 ft | 468 kts | 330° |
| 2026-05-06 18:50 | 46.76186 | 6.45455 | 37020 ft | 467 kts | 330° |
| 2026-05-06 18:51 | 46.79104 | 6.43376 | 37224 ft | 467 kts | 330° |
| 2026-05-06 18:51 | 46.82030 | 6.41290 | 37353 ft | 468 kts | 330° |
| 2026-05-06 18:51 | 46.84957 | 6.39202 | 37534 ft | 468 kts | 330° |
| 2026-05-06 18:51 | 46.87876 | 6.37118 | 37751 ft | 467 kts | 330° |
| 2026-05-06 18:52 | 46.90757 | 6.35058 | 37938 ft | 467 kts | 330° |
| 2026-05-06 18:52 | 46.96622 | 6.30857 | 37939 ft | 470 kts | 330° |
| 2026-05-06 18:53 | 47.02472 | 6.26657 | 37941 ft | 467 kts | 330° |
| 2026-05-06 18:53 | 47.08290 | 6.22474 | 37929 ft | 464 kts | 330° |
| 2026-05-06 18:54 | 47.14080 | 6.18321 | 37944 ft | 463 kts | 331° |
| 2026-05-06 18:54 | 47.19817 | 6.14198 | 37934 ft | 462 kts | 331° |
| 2026-05-06 18:55 | 47.25585 | 6.10040 | 37931 ft | 462 kts | 331° |
| 2026-05-06 18:55 | 47.31369 | 6.05873 | 37930 ft | 463 kts | 333° |
| 2026-05-06 18:56 | 47.37608 | 6.03342 | 37937 ft | 470 kts | 352° |
| 2026-05-06 18:56 | 47.44137 | 6.03343 | 37932 ft | 474 kts | 360° |
| 2026-05-06 18:57 | 47.50741 | 6.03599 | 37923 ft | 476 kts | 359° |
| 2026-05-06 18:57 | 47.57378 | 6.03765 | 37916 ft | 477 kts | 359° |
| 2026-05-06 18:58 | 47.64029 | 6.03895 | 37916 ft | 478 kts | 359° |
| 2026-05-06 18:58 | 47.70682 | 6.04030 | 37914 ft | 479 kts | 359° |
| 2026-05-06 18:59 | 47.77253 | 6.05076 | 37922 ft | 481 kts | 13° |
| 2026-05-06 18:59 | 47.83722 | 6.07626 | 37926 ft | 480 kts | 13° |
| 2026-05-06 19:00 | 47.90187 | 6.10153 | 37917 ft | 480 kts | 13° |
| 2026-05-06 19:00 | 47.96646 | 6.12612 | 37915 ft | 478 kts | 13° |
| 2026-05-06 19:01 | 48.03045 | 6.15026 | 37910 ft | 477 kts | 13° |
| 2026-05-06 19:01 | 48.09478 | 6.17457 | 37907 ft | 476 kts | 13° |
| 2026-05-06 19:02 | 48.15903 | 6.19895 | 37893 ft | 475 kts | 13° |
| 2026-05-06 19:02 | 48.22269 | 6.22318 | 37890 ft | 475 kts | 13° |
| 2026-05-06 19:03 | 48.28665 | 6.24760 | 37895 ft | 474 kts | 13° |
| 2026-05-06 19:03 | 48.35056 | 6.27206 | 37883 ft | 474 kts | 13° |
| 2026-05-06 19:04 | 48.41448 | 6.29658 | 37894 ft | 474 kts | 13° |
| 2026-05-06 19:04 | 48.47836 | 6.32115 | 37896 ft | 474 kts | 13° |
| 2026-05-06 19:05 | 48.54182 | 6.34563 | 37890 ft | 474 kts | 13° |
| 2026-05-06 19:05 | 48.60578 | 6.37036 | 37890 ft | 474 kts | 13° |
| 2026-05-06 19:06 | 48.66998 | 6.39363 | 37876 ft | 474 kts | 6° |
| 2026-05-06 19:06 | 48.73552 | 6.40070 | 37886 ft | 473 kts | 1° |
| 2026-05-06 19:07 | 48.80084 | 6.40587 | 37886 ft | 473 kts | 2° |
| 2026-05-06 19:07 | 48.86657 | 6.41221 | 37882 ft | 474 kts | 2° |
| 2026-05-06 19:08 | 48.93237 | 6.41907 | 37885 ft | 474 kts | 2° |
| 2026-05-06 19:08 | 48.99826 | 6.42596 | 37885 ft | 474 kts | 2° |
| 2026-05-06 19:09 | 49.06370 | 6.43276 | 37882 ft | 475 kts | 2° |
| 2026-05-06 19:09 | 49.12949 | 6.43238 | 37609 ft | 475 kts | 349° |
| 2026-05-06 19:09 | 49.16158 | 6.42087 | 37106 ft | 473 kts | 342° |
| 2026-05-06 19:10 | 49.19308 | 6.40696 | 36643 ft | 469 kts | 342° |
| 2026-05-06 19:10 | 49.22431 | 6.39331 | 36187 ft | 466 kts | 342° |
| 2026-05-06 19:10 | 49.25546 | 6.37998 | 35902 ft | 464 kts | 343° |
| 2026-05-06 19:11 | 49.31821 | 6.35378 | 35883 ft | 470 kts | 343° |
| 2026-05-06 19:11 | 49.38139 | 6.32765 | 35866 ft | 470 kts | 343° |
| 2026-05-06 19:12 | 49.44388 | 6.30173 | 35872 ft | 467 kts | 343° |
| 2026-05-06 19:12 | 49.50616 | 6.27579 | 35690 ft | 456 kts | 343° |
| 2026-05-06 19:12 | 49.53657 | 6.26321 | 35023 ft | 451 kts | 344° |
| 2026-05-06 19:13 | 49.56690 | 6.25082 | 34080 ft | 453 kts | 344° |
| 2026-05-06 19:13 | 49.59753 | 6.23834 | 32871 ft | 457 kts | 344° |
| 2026-05-06 19:13 | 49.62837 | 6.22576 | 31611 ft | 461 kts | 344° |
| 2026-05-06 19:13 | 49.65941 | 6.21307 | 30376 ft | 464 kts | 345° |
| 2026-05-06 19:14 | 49.69075 | 6.20022 | 29154 ft | 464 kts | 345° |
| 2026-05-06 19:14 | 49.72133 | 6.18766 | 28640 ft | 447 kts | 344° |
| 2026-05-06 19:14 | 49.75057 | 6.17563 | 28075 ft | 434 kts | 344° |
| 2026-05-06 19:14 | 49.77926 | 6.16380 | 27545 ft | 422 kts | 344° |
| 2026-05-06 19:15 | 49.80722 | 6.15226 | 27049 ft | 409 kts | 344° |
| 2026-05-06 19:15 | 49.83455 | 6.14097 | 26561 ft | 407 kts | 343° |
| 2026-05-06 19:15 | 49.86240 | 6.13080 | 26057 ft | 420 kts | 350° |
| 2026-05-06 19:15 | 49.89220 | 6.12795 | 25655 ft | 437 kts | 359° |
| 2026-05-06 19:16 | 49.92265 | 6.12867 | 25089 ft | 436 kts | 360° |
| 2026-05-06 19:16 | 49.95285 | 6.12951 | 24563 ft | 432 kts | 359° |
| 2026-05-06 19:16 | 49.98237 | 6.13016 | 24040 ft | 428 kts | 359° |
| 2026-05-06 19:16 | 50.01194 | 6.13060 | 23520 ft | 424 kts | 359° |
| 2026-05-06 19:17 | 50.04132 | 6.13085 | 22917 ft | 420 kts | 358° |
| 2026-05-06 19:17 | 50.07037 | 6.13101 | 22351 ft | 416 kts | 358° |
| 2026-05-06 19:17 | 50.09914 | 6.13114 | 21823 ft | 411 kts | 358° |
| 2026-05-06 19:17 | 50.12760 | 6.13125 | 21300 ft | 407 kts | 358° |
| 2026-05-06 19:18 | 50.15571 | 6.13136 | 20776 ft | 403 kts | 358° |
| 2026-05-06 19:18 | 50.18356 | 6.13148 | 20394 ft | 397 kts | 358° |
| 2026-05-06 19:18 | 50.21068 | 6.13161 | 20042 ft | 393 kts | 358° |
| 2026-05-06 19:18 | 50.23816 | 6.13172 | 19669 ft | 397 kts | 358° |
| 2026-05-06 19:19 | 50.26590 | 6.13200 | 19107 ft | 397 kts | 0° |
| 2026-05-06 19:19 | 50.29284 | 6.13766 | 18957 ft | 385 kts | 13° |
| 2026-05-06 19:19 | 50.31751 | 6.15200 | 18899 ft | 372 kts | 24° |
| 2026-05-06 19:19 | 50.33938 | 6.17215 | 18823 ft | 360 kts | 32° |
| 2026-05-06 19:20 | 50.36028 | 6.19426 | 18015 ft | 366 kts | 32° |
| 2026-05-06 19:20 | 50.38175 | 6.21675 | 16779 ft | 375 kts | 32° |
| 2026-05-06 19:20 | 50.40353 | 6.23941 | 15806 ft | 376 kts | 32° |
| 2026-05-06 19:20 | 50.42499 | 6.26161 | 15324 ft | 362 kts | 31° |
| 2026-05-06 19:21 | 50.44581 | 6.28314 | 14831 ft | 356 kts | 31° |
| 2026-05-06 19:21 | 50.46614 | 6.30415 | 14367 ft | 354 kts | 32° |
| 2026-05-06 19:21 | 50.48567 | 6.32819 | 13893 ft | 355 kts | 44° |
| 2026-05-06 19:21 | 50.50062 | 6.35839 | 13424 ft | 356 kts | 57° |
| 2026-05-06 19:22 | 50.51140 | 6.39339 | 12943 ft | 356 kts | 66° |
| 2026-05-06 19:22 | 50.52070 | 6.42926 | 12474 ft | 353 kts | 65° |
| 2026-05-06 19:22 | 50.53023 | 6.46477 | 12016 ft | 351 kts | 65° |
| 2026-05-06 19:22 | 50.53972 | 6.49986 | 11570 ft | 348 kts | 65° |
| 2026-05-06 19:23 | 50.54919 | 6.53482 | 11113 ft | 347 kts | 65° |
| 2026-05-06 19:23 | 50.55859 | 6.56960 | 10740 ft | 343 kts | 65° |
| 2026-05-06 19:23 | 50.56605 | 6.60514 | 10333 ft | 342 kts | 74° |
| 2026-05-06 19:23 | 50.57067 | 6.64089 | 10096 ft | 325 kts | 77° |
| 2026-05-06 19:24 | 50.57443 | 6.67498 | 9945 ft | 308 kts | 77° |
| 2026-05-06 19:24 | 50.57792 | 6.70684 | 9847 ft | 290 kts | 77° |
| 2026-05-06 19:24 | 50.58134 | 6.73714 | 9794 ft | 273 kts | 76° |
| 2026-05-06 19:24 | 50.58482 | 6.76686 | 9261 ft | 274 kts | 76° |
| 2026-05-06 19:25 | 50.58832 | 6.79614 | 8889 ft | 270 kts | 76° |
| 2026-05-06 19:25 | 50.59179 | 6.82485 | 8617 ft | 266 kts | 76° |
| 2026-05-06 19:25 | 50.59528 | 6.85345 | 8347 ft | 268 kts | 76° |
| 2026-05-06 19:25 | 50.59886 | 6.88267 | 8082 ft | 275 kts | 76° |
| 2026-05-06 19:26 | 50.60253 | 6.91252 | 7790 ft | 280 kts | 76° |
| 2026-05-06 19:26 | 50.60625 | 6.94288 | 7500 ft | 284 kts | 76° |
| 2026-05-06 19:26 | 50.60995 | 6.97327 | 7203 ft | 282 kts | 76° |
| 2026-05-06 19:26 | 50.61364 | 7.00351 | 6932 ft | 280 kts | 77° |
| 2026-05-06 19:27 | 50.61729 | 7.03347 | 6642 ft | 278 kts | 77° |
| 2026-05-06 19:27 | 50.62085 | 7.06287 | 6371 ft | 276 kts | 77° |
| 2026-05-06 19:27 | 50.62442 | 7.09236 | 6084 ft | 273 kts | 77° |
| 2026-05-06 19:27 | 50.62791 | 7.12127 | 5802 ft | 264 kts | 77° |
| 2026-05-06 19:28 | 50.63132 | 7.14946 | 5566 ft | 261 kts | 77° |
| 2026-05-06 19:28 | 50.63466 | 7.17711 | 5303 ft | 253 kts | 77° |
| 2026-05-06 19:28 | 50.63783 | 7.20352 | 5262 ft | 239 kts | 76° |
| 2026-05-06 19:28 | 50.64088 | 7.22918 | 5170 ft | 242 kts | 77° |
| 2026-05-06 19:29 | 50.64408 | 7.25552 | 5054 ft | 247 kts | 80° |
| 2026-05-06 19:29 | 50.64554 | 7.28243 | 5021 ft | 245 kts | 83° |
| 2026-05-06 19:29 | 50.64679 | 7.30906 | 4799 ft | 245 kts | 83° |
| 2026-05-06 19:29 | 50.64806 | 7.33591 | 4454 ft | 247 kts | 83° |
| 2026-05-06 19:30 | 50.64938 | 7.36267 | 4095 ft | 249 kts | 83° |
| 2026-05-06 19:30 | 50.65172 | 7.39004 | 3717 ft | 248 kts | 70° |
| 2026-05-06 19:30 | 50.66044 | 7.41212 | 3357 ft | 237 kts | 38° |
| 2026-05-06 19:30 | 50.67470 | 7.42311 | 3065 ft | 226 kts | 6° |
| 2026-05-06 19:31 | 50.68970 | 7.42064 | 3026 ft | 213 kts | 345° |
| 2026-05-06 19:31 | 50.70375 | 7.41419 | 3001 ft | 208 kts | 343° |
| 2026-05-06 19:31 | 50.72824 | 7.39315 | 2992 ft | 205 kts | 302° |
| 2026-05-06 19:32 | 50.73338 | 7.37294 | 3014 ft | 193 kts | 291° |
| 2026-05-06 19:32 | 50.73783 | 7.35361 | 3010 ft | 183 kts | 293° |
| 2026-05-06 19:32 | 50.74220 | 7.33492 | 3016 ft | 180 kts | 294° |
| 2026-05-06 19:32 | 50.74877 | 7.31823 | 2983 ft | 179 kts | 323° |
| 2026-05-06 19:33 | 50.75933 | 7.30800 | 2925 ft | 183 kts | 327° |
| 2026-05-06 19:33 | 50.76786 | 7.29318 | 2729 ft | 183 kts | 305° |
| 2026-05-06 19:33 | 50.77558 | 7.27806 | 2474 ft | 170 kts | 324° |
| 2026-05-06 19:33 | 50.78492 | 7.26829 | 2247 ft | 159 kts | 323° |
| 2026-05-06 19:34 | 50.79267 | 7.25636 | 2058 ft | 154 kts | 316° |
| 2026-05-06 19:34 | 50.80054 | 7.24491 | 1849 ft | 155 kts | 320° |
| 2026-05-06 19:34 | 50.80856 | 7.23349 | 1635 ft | 155 kts | 319° |
| 2026-05-06 19:34 | 50.81629 | 7.22228 | 1448 ft | 145 kts | 318° |
| 2026-05-06 19:35 | 50.82358 | 7.21168 | 1220 ft | 142 kts | 318° |
| 2026-05-06 19:35 | 50.83103 | 7.20085 | 1002 ft | 148 kts | 317° |
| 2026-05-06 19:35 | 50.83855 | 7.18986 | 802 ft | 145 kts | 317° |
| 2026-05-06 19:35 | 50.84606 | 7.17903 | 597 ft | 149 kts | 319° |
| 2026-05-06 19:36 | 50.85364 | 7.16796 | 412 ft | 149 kts | 317° |
| 2026-05-06 19:36 | 50.86117 | 7.15697 | 289 ft | 140 kts | 318° |
| 2026-05-06 19:36 | 50.86679 | 7.14887 | 259 ft | 65 kts | 317° |
| 2026-05-06 19:36 | 50.86867 | 7.14489 | 255 ft | 25 kts | 284° |
| 2026-05-06 19:37 | 50.86891 | 7.14293 | 255 ft | 0 kts | 280° |
| 2026-05-06 19:37 | 50.86892 | 7.14290 | 255 ft | 1 kts | 280° |
| 2026-05-06 19:37 | 50.86893 | 7.14276 | 255 ft | 3 kts | 280° |
| 2026-05-06 19:38 | 50.86905 | 7.14176 | 253 ft | 11 kts | 284° |
| 2026-05-06 19:38 | 50.86950 | 7.14046 | 249 ft | 16 kts | 313° |
| 2026-05-06 19:38 | 50.87041 | 7.13907 | 246 ft | 20 kts | 316° |
| 2026-05-06 19:38 | 50.87146 | 7.13753 | 242 ft | 17 kts | 320° |
| 2026-05-06 19:39 | 50.87240 | 7.13627 | 239 ft | 19 kts | 319° |
| 2026-05-06 19:39 | 50.87289 | 7.13555 | 238 ft | 7 kts | 314° |
| 2026-05-06 19:39 | 50.87297 | 7.13542 | 238 ft | 0 kts | 314° |
| 2026-05-06 19:40 | 50.87298 | 7.13540 | 238 ft | 2 kts | 313° |
| 2026-05-06 19:40 | 50.87323 | 7.13496 | 237 ft | 9 kts | 311° |
| 2026-05-06 19:40 | 50.87328 | 7.13421 | 240 ft | 7 kts | 248° |
| 2026-05-06 19:40 | 50.87310 | 7.13367 | 237 ft | 1 kts | 191° |
| 2026-05-06 19:41 | 50.87303 | 7.13377 | 236 ft | 2 kts | 120° |
| 2026-05-06 19:41 | 50.87289 | 7.13395 | 237 ft | 5 kts | 146° |
| 2026-05-06 19:41 | 50.87258 | 7.13435 | 236 ft | 5 kts | 139° |
| 2026-05-06 19:41 | 50.87221 | 7.13438 | 237 ft | 6 kts | 203° |
| 2026-05-06 19:42 | 50.87187 | 7.13381 | 238 ft | 7 kts | 227° |
| 2026-05-06 19:42 | 50.87166 | 7.13345 | 235 ft | 1 kts | 227° |
| 2026-05-06 19:42 | 50.87161 | 7.13336 | 235 ft | 0 kts | 227° |